createdAt,value
2019-05-18T00:04:17.734Z,100284.80
2019-05-18T00:09:23.800Z,100289.18
2019-05-18T00:14:29.768Z,100283.44
2019-05-18T00:19:35.738Z,100294.29
2019-05-18T00:24:41.579Z,100296.98
2019-05-18T00:29:47.846Z,100298.63
2019-05-18T00:34:53.859Z,100308.05
2019-05-18T00:39:59.830Z,100313.38
2019-05-18T00:45:08.893Z,100307.30
2019-05-18T00:50:15.385Z,100304.98
2019-05-18T00:55:21.426Z,100298.58
2019-05-18T01:00:27.403Z,100300.14
2019-05-18T01:05:33.778Z,100298.58
2019-05-18T01:10:40.260Z,100289.67
2019-05-18T01:15:46.232Z,100300.10
2019-05-18T01:20:52.919Z,100285.27
2019-05-18T01:25:58.745Z,100277.53
2019-05-18T01:31:04.659Z,100276.73
2019-05-18T01:36:11.961Z,100272.58
2019-05-18T01:41:17.858Z,100268.56
2019-05-18T01:46:24.004Z,100259.27
2019-05-18T01:51:29.973Z,100260.42
2019-05-18T01:56:35.944Z,100251.17
2019-05-18T02:01:41.914Z,100245.15
2019-05-18T02:06:48.322Z,100248.19
2019-05-18T02:11:54.268Z,100243.49
2019-05-18T02:17:00.341Z,100249.44
2019-05-18T02:22:06.618Z,100239.20
2019-05-18T02:27:12.591Z,100239.33
2019-05-18T02:32:18.563Z,100241.38
2019-05-18T02:37:24.636Z,100250.05
2019-05-18T02:42:30.944Z,100255.42
2019-05-18T02:47:37.198Z,100252.42
2019-05-18T02:52:43.268Z,100244.64
2019-05-18T02:57:49.570Z,100246.59
2019-05-18T03:02:55.415Z,100246.14
2019-05-18T03:08:01.485Z,100246.73
2019-05-18T03:13:07.700Z,100238.44
2019-05-18T03:18:14.145Z,100243.58
2019-05-18T03:23:20.216Z,100243.73
2019-05-18T03:28:28.236Z,100242.09
2019-05-18T03:33:34.114Z,100238.56
2019-05-18T03:38:40.077Z,100242.19
2019-05-18T03:43:46.050Z,100227.80
2019-05-18T03:48:52.033Z,100229.64
2019-05-18T03:53:57.988Z,100230.70
2019-05-18T03:59:03.967Z,100236.95
2019-05-18T04:04:09.829Z,100239.26
2019-05-18T04:09:17.027Z,100239.04
2019-05-18T04:14:23.003Z,100235.84
2019-05-18T04:19:44.875Z,100241.70
2019-05-18T04:24:36.584Z,100237.20
2019-05-18T04:29:42.657Z,100238.41
2019-05-18T04:34:49.972Z,100237.95
2019-05-18T04:39:56.337Z,100238.84
2019-05-18T04:45:02.321Z,100239.50
2019-05-18T04:50:09.638Z,100244.70
2019-05-18T04:55:15.782Z,100248.88
2019-05-18T05:00:22.064Z,100242.64
2019-05-18T05:05:28.038Z,100243.61
2019-05-18T05:10:34.014Z,100240.41
2019-05-18T05:15:40.183Z,100246.75
2019-05-18T05:20:47.510Z,100231.14
2019-05-18T05:25:53.470Z,100219.86
2019-05-18T05:30:59.734Z,100218.80
2019-05-18T05:36:06.065Z,100219.82
2019-05-18T05:41:16.517Z,100219.83
2019-05-18T05:46:20.078Z,100219.09
2019-05-18T05:51:26.079Z,100214.34
2019-05-18T05:56:32.083Z,100212.66
2019-05-18T06:01:38.427Z,100212.23
2019-05-18T06:06:45.050Z,100195.43
2019-05-18T06:11:51.081Z,100197.16
2019-05-18T06:16:57.975Z,100187.34
2019-05-18T06:22:03.959Z,100188.75
2019-05-18T06:27:10.030Z,100185.41
2019-05-18T06:32:16.095Z,100200.08
2019-05-18T06:37:22.073Z,100205.22
2019-05-18T06:42:28.278Z,100195.73
2019-05-18T06:47:34.238Z,100191.02
2019-05-18T06:52:41.449Z,100194.63
2019-05-18T06:57:48.386Z,100189.19
2019-05-18T07:02:54.286Z,100191.89
2019-05-18T07:08:00.280Z,100191.84
2019-05-18T07:13:06.522Z,100184.38
2019-05-18T07:18:12.494Z,100183.86
2019-05-18T07:23:18.574Z,100178.17
2019-05-18T07:28:25.057Z,100166.63
2019-05-18T07:33:30.917Z,100172.55
2019-05-18T07:38:37.200Z,100169.48
2019-05-18T07:43:43.168Z,100172.50
2019-05-18T07:48:49.136Z,100167.83
2019-05-18T07:53:55.107Z,100176.33
2019-05-18T07:59:01.080Z,100179.13
2019-05-18T08:04:07.178Z,100180.45
2019-05-18T08:09:13.376Z,100179.78
2019-05-18T08:14:19.300Z,100175.11
2019-05-18T08:19:25.273Z,100173.38
2019-05-18T08:24:31.241Z,100171.69
2019-05-18T08:29:39.160Z,100170.61
2019-05-18T08:34:45.334Z,100188.17
2019-05-18T08:39:51.436Z,100190.80
2019-05-18T08:44:57.425Z,100203.16
2019-05-18T08:50:03.553Z,100218.47
2019-05-18T08:55:10.247Z,100222.23
2019-05-18T09:00:17.034Z,100191.42
2019-05-18T09:05:23.523Z,100164.53
2019-05-18T09:10:29.588Z,100153.03
2019-05-18T09:15:35.556Z,100151.23
2019-05-18T09:20:41.841Z,100167.73
2019-05-18T09:25:47.981Z,100179.92
2019-05-18T09:30:55.215Z,100190.55
2019-05-18T09:36:01.217Z,100191.19
2019-05-18T09:41:07.400Z,100190.11
2019-05-18T09:46:13.388Z,100185.69
2019-05-18T09:51:19.423Z,100167.13
2019-05-18T09:56:25.372Z,100165.03
2019-05-18T10:01:31.441Z,100161.57
2019-05-18T10:06:37.358Z,100149.09
2019-05-18T10:11:43.507Z,100143.86
2019-05-18T10:16:49.818Z,100144.95
2019-05-18T10:21:55.767Z,100149.77
2019-05-18T10:27:01.815Z,100144.73
2019-05-18T10:32:09.627Z,100154.10
2019-05-18T10:37:15.596Z,100155.75
2019-05-18T10:42:21.589Z,100138.91
2019-05-18T10:47:27.606Z,100138.05
2019-05-18T10:52:33.505Z,100139.36
2019-05-18T10:57:39.480Z,100121.72
2019-05-18T11:02:45.483Z,100118.33
2019-05-18T11:07:52.144Z,100121.24
2019-05-18T11:12:58.310Z,100111.52
2019-05-18T11:18:04.285Z,100106.20
2019-05-18T11:23:11.270Z,100113.15
2019-05-18T11:28:17.768Z,100093.11
2019-05-18T11:33:25.067Z,100088.95
2019-05-18T11:38:31.035Z,100085.05
2019-05-18T11:43:37.321Z,100083.01
2019-05-18T11:48:43.413Z,100087.59
2019-05-18T11:53:57.828Z,100099.43
2019-05-18T11:58:56.128Z,100089.13
2019-05-18T12:04:02.018Z,100086.11
2019-05-18T12:09:08.295Z,100088.06
2019-05-18T12:14:14.368Z,100086.84
2019-05-18T12:19:20.453Z,100093.00
2019-05-18T12:24:26.426Z,100094.24
2019-05-18T12:29:32.491Z,100095.19
2019-05-18T12:34:38.705Z,100088.21
2019-05-18T12:39:45.044Z,100102.23
2019-05-18T12:44:51.325Z,100094.24
2019-05-18T12:49:57.290Z,100087.00
2019-05-18T12:55:03.360Z,100088.77
2019-05-18T13:00:15.494Z,100085.56
2019-05-18T13:05:21.881Z,100082.05
2019-05-18T13:10:28.344Z,100078.75
2019-05-18T13:15:34.733Z,100076.61
2019-05-18T13:20:40.712Z,100074.08
2019-05-18T13:25:46.660Z,100067.78
2019-05-18T13:30:52.924Z,100062.80
2019-05-18T13:36:00.608Z,100056.66
2019-05-18T13:41:06.830Z,100042.58
2019-05-18T13:46:13.212Z,100039.87
2019-05-18T13:51:19.282Z,100033.71
2019-05-18T13:56:25.267Z,100026.55
2019-05-18T14:01:31.432Z,100038.40
2019-05-18T14:06:37.843Z,100031.13
2019-05-18T14:11:43.802Z,100030.05
2019-05-18T14:16:49.855Z,100028.55
2019-05-18T14:21:55.829Z,100023.92
2019-05-18T14:27:01.715Z,100021.47
2019-05-18T14:32:10.830Z,100023.66
2019-05-18T14:37:14.541Z,100019.48
2019-05-18T14:42:20.301Z,100006.17
2019-05-18T14:47:27.640Z,100018.47
2019-05-18T14:52:33.802Z,100025.16
2019-05-18T14:57:39.869Z,100015.16
2019-05-18T15:02:45.949Z,100019.23
2019-05-18T15:07:52.002Z,100021.95
2019-05-18T15:12:58.104Z,100024.66
2019-05-18T15:18:04.097Z,100032.23
2019-05-18T15:23:10.463Z,100024.86
2019-05-18T15:28:16.726Z,100025.23
2019-05-18T15:33:22.700Z,100036.02
2019-05-18T15:38:28.662Z,100037.91
2019-05-18T15:43:34.652Z,100037.77
2019-05-18T15:48:40.735Z,100041.56
2019-05-18T15:53:46.888Z,100044.81
2019-05-18T15:58:52.749Z,100037.62
2019-05-18T16:03:58.725Z,100038.73
2019-05-18T16:09:06.037Z,100029.72
2019-05-18T16:14:12.002Z,100022.16
2019-05-18T16:19:18.245Z,100017.36
2019-05-18T16:24:24.248Z,100015.16
2019-05-18T16:29:30.237Z,100011.61
2019-05-18T16:34:36.291Z,100012.44
2019-05-18T16:39:42.386Z,99992.86
2019-05-18T16:44:48.442Z,100000.28
2019-05-18T16:49:54.425Z,99997.56
2019-05-18T16:55:00.484Z,100002.99
2019-05-18T17:00:16.174Z,99999.51
2019-05-18T17:05:21.747Z,100002.36
2019-05-18T17:10:27.818Z,100001.97
2019-05-18T17:15:34.819Z,99999.64
2019-05-18T17:20:43.138Z,100008.12
2019-05-18T17:25:49.033Z,100002.42
2019-05-18T17:30:55.287Z,100010.61
2019-05-18T17:36:01.359Z,100005.70
2019-05-18T17:41:07.466Z,100015.81
2019-05-18T17:46:13.500Z,100019.30
2019-05-18T17:51:19.886Z,100022.28
2019-05-18T17:56:25.970Z,100022.28
2019-05-18T18:01:32.134Z,100027.91
2019-05-18T18:06:38.001Z,100029.52
2019-05-18T18:11:44.074Z,100019.48
2019-05-18T18:16:50.563Z,100011.78
2019-05-18T18:21:57.720Z,100003.31
2019-05-18T18:27:03.843Z,99997.44
2019-05-18T18:32:09.950Z,99990.02
2019-05-18T18:37:15.997Z,99999.09
2019-05-18T18:42:22.174Z,99993.81
2019-05-18T18:47:28.429Z,99997.35
2019-05-18T18:52:34.501Z,99999.03
2019-05-18T18:57:42.203Z,100000.27
2019-05-18T19:02:48.596Z,99997.83
2019-05-18T19:07:54.671Z,99995.25
2019-05-18T19:13:00.992Z,99991.44
2019-05-18T19:18:07.024Z,99988.72
2019-05-18T19:23:13.198Z,99996.98
2019-05-18T19:28:19.286Z,100005.86
2019-05-18T19:33:25.344Z,100006.24
2019-05-18T19:38:31.214Z,100005.35
2019-05-18T19:43:37.212Z,100003.33
2019-05-18T19:48:43.356Z,100002.50
2019-05-18T19:53:49.636Z,100001.78
2019-05-18T19:58:55.510Z,99989.87
2019-05-18T20:04:01.582Z,99993.55
2019-05-18T20:09:07.875Z,100000.58
2019-05-18T20:14:13.935Z,99995.88
2019-05-18T20:19:19.999Z,100004.56
2019-05-18T20:24:26.228Z,100001.48
2019-05-18T20:29:32.452Z,100006.26
2019-05-18T20:34:38.423Z,100003.06
2019-05-18T20:39:44.409Z,100005.84
2019-05-18T20:44:50.467Z,100007.06
2019-05-18T20:49:56.850Z,100011.03
2019-05-18T20:55:02.936Z,100010.02
2019-05-18T21:00:10.632Z,100006.30
2019-05-18T21:05:18.246Z,100001.52
2019-05-18T21:10:24.228Z,100006.08
2019-05-18T21:15:30.286Z,99989.89
2019-05-18T21:20:36.870Z,99995.17
2019-05-18T21:25:42.946Z,99998.72
2019-05-18T21:30:49.020Z,99999.05
2019-05-18T21:35:55.002Z,100003.92
2019-05-18T21:41:01.059Z,99995.45
2019-05-18T21:46:07.135Z,99991.91
2019-05-18T21:51:13.209Z,99999.50
2019-05-18T21:56:19.250Z,99998.24
2019-05-18T22:01:25.668Z,99995.74
2019-05-18T22:06:31.740Z,99984.77
2019-05-18T22:11:38.528Z,99979.75
2019-05-18T22:16:44.496Z,99979.16
2019-05-18T22:21:50.366Z,99981.45
2019-05-18T22:26:56.291Z,99975.64
2019-05-18T22:32:02.309Z,99978.34
2019-05-18T22:37:08.380Z,99962.17
2019-05-18T22:42:14.252Z,99961.75
2019-05-18T22:47:20.321Z,99961.83
2019-05-18T22:52:26.494Z,99961.75
2019-05-18T22:57:32.570Z,99950.04
2019-05-18T23:02:38.649Z,99947.77
2019-05-18T23:07:44.762Z,99935.88
2019-05-18T23:12:50.799Z,99933.59
2019-05-18T23:17:56.861Z,99936.12
2019-05-18T23:23:02.844Z,99940.27
2019-05-18T23:28:08.937Z,99932.00
2019-05-18T23:33:14.976Z,99919.92
2019-05-18T23:38:20.809Z,99913.39
2019-05-18T23:43:26.720Z,99926.32
2019-05-18T23:48:32.693Z,99923.61
2019-05-18T23:53:38.760Z,99924.86
2019-05-18T23:58:44.635Z,99927.14
